Time;durP1;ratioP1;P1;durP2;ratioP2;P2;SDS_P1;SDS_P2;PMS_P1;PMS_P2;Temp;Humidity;BMP_temperature;BMP_pressure;BME280_temperature;BME280_humidity;BME280_pressure;Samples;Min_cycle;Max_cycle;Signal;HPM_P1;HPM_P2
2021/12/09 00:01:40;;;;;;;15.70;8.27;;;2.10;99.90;;;;;;4930465;29;20044;-86
2021/12/09 00:04:23;;;;;;;14.43;8.02;;;2.10;99.90;;;;;;4925915;29;20537;-86
2021/12/09 00:06:56;;;;;;;23.30;8.80;;;2.10;99.90;;;;;;4915481;28;20115;-84
2021/12/09 00:09:33;;;;;;;21.23;9.38;;;2.10;99.90;;;;;;4915465;29;20623;-85
2021/12/09 00:12:14;;;;;;;21.60;9.88;;;2.10;99.90;;;;;;4926220;29;20410;-85
2021/12/09 00:14:41;;;;;;;22.75;9.70;;;2.00;99.90;;;;;;4913645;28;20055;-85
2021/12/09 00:17:08;;;;;;;20.92;9.32;;;2.10;99.90;;;;;;4929661;28;23531;-85
2021/12/09 00:19:52;;;;;;;23.38;10.13;;;2.00;99.90;;;;;;4918279;29;20122;-85
2021/12/09 00:22:27;;;;;;;19.33;9.55;;;2.00;99.90;;;;;;4919275;29;20043;-86
2021/12/09 00:25:01;;;;;;;23.55;10.50;;;2.00;99.90;;;;;;4927995;29;20073;-84
2021/12/09 00:27:35;;;;;;;20.42;10.70;;;2.00;99.90;;;;;;4954853;28;20095;-84
2021/12/09 00:30:05;;;;;;;30.40;11.70;;;1.90;99.90;;;;;;4919752;28;20057;-84
2021/12/09 00:32:33;;;;;;;20.77;10.70;;;2.00;99.90;;;;;;4951936;28;20031;-85
2021/12/09 00:35:00;;;;;;;27.80;12.07;;;1.90;99.90;;;;;;4933404;28;20126;-85
2021/12/09 00:37:36;;;;;;;30.58;12.75;;;1.90;99.90;;;;;;4913938;28;20039;-84
2021/12/09 00:40:03;;;;;;;21.42;10.23;;;1.90;99.90;;;;;;4928535;29;20133;-84
2021/12/09 00:42:29;;;;;;;23.92;10.57;;;1.90;99.90;;;;;;4912934;28;20032;-84
2021/12/09 00:45:10;;;;;;;20.17;9.50;;;1.90;99.90;;;;;;4905264;28;20039;-85
2021/12/09 00:47:40;;;;;;;20.50;9.80;;;1.90;99.90;;;;;;4905058;28;20035;-85
2021/12/09 00:50:11;;;;;;;19.25;9.50;;;1.90;99.90;;;;;;4919738;29;20521;-84
2021/12/09 00:52:37;;;;;;;18.95;9.02;;;1.90;99.90;;;;;;4897758;29;20483;-84
2021/12/09 00:55:09;;;;;;;27.65;9.80;;;1.90;99.90;;;;;;4920107;29;20122;-85
2021/12/09 00:57:43;;;;;;;17.13;9.13;;;1.90;99.90;;;;;;4917635;29;20031;-86
2021/12/09 01:00:20;;;;;;;18.70;9.70;;;1.90;99.90;;;;;;4935853;29;20101;-85
2021/12/09 01:03:01;;;;;;;24.08;10.48;;;1.90;99.90;;;;;;4928527;29;20047;-85
2021/12/09 01:05:32;;;;;;;20.92;9.75;;;1.90;99.90;;;;;;4928579;29;20047;-85
2021/12/09 01:07:58;;;;;;;25.77;9.82;;;1.90;99.90;;;;;;4919083;29;20039;-85
2021/12/09 01:10:25;;;;;;;15.55;9.40;;;1.90;99.90;;;;;;4919149;28;20036;-85
2021/12/09 01:13:12;;;;;;;24.90;10.30;;;1.90;99.90;;;;;;4909829;28;20054;-85
2021/12/09 01:15:44;;;;;;;27.40;11.50;;;1.80;99.90;;;;;;4929342;29;20529;-83
2021/12/09 01:18:25;;;;;;;;;;;1.80;99.90;;;;;;4916189;28;20130;-85
2021/12/09 01:20:51;;;;;;;23.50;11.52;;;1.80;99.90;;;;;;4926202;29;19926;-85
2021/12/09 01:23:18;;;;;;;27.20;11.23;;;1.70;99.90;;;;;;4931539;29;20039;-85
2021/12/09 01:25:49;;;;;;;24.55;10.70;;;1.70;99.90;;;;;;4902009;29;20043;-85
2021/12/09 01:28:24;;;;;;;29.27;10.90;;;1.70;99.90;;;;;;4917045;28;20059;-85
2021/12/09 01:30:51;;;;;;;22.83;10.30;;;1.70;99.90;;;;;;4922787;28;20051;-85
2021/12/09 01:33:17;;;;;;;20.10;10.63;;;1.70;99.90;;;;;;4930301;29;20035;-85
2021/12/09 01:35:47;;;;;;;22.00;11.32;;;1.70;99.90;;;;;;4920456;28;20934;-85
2021/12/09 01:38:19;;;;;;;22.67;10.50;;;1.70;99.90;;;;;;4920662;29;20035;-85
2021/12/09 01:40:46;;;;;;;28.27;10.90;;;1.70;99.90;;;;;;4933405;28;20980;-85
2021/12/09 01:43:31;;;;;;;22.95;10.80;;;1.60;99.90;;;;;;4914409;28;20495;-86
2021/12/09 01:46:44;;;;;;;;;;;;;;;;;;;;;
2021/12/09 01:49:14;;;;;;;24.52;11.48;;;1.70;99.90;;;;;;4931764;28;20093;-85
2021/12/09 01:52:23;;;;;;;24.35;11.73;;;1.70;99.90;;;;;;4935898;29;20107;-85
2021/12/09 01:54:51;;;;;;;25.20;11.75;;;1.70;99.90;;;;;;4919262;29;20181;-85
2021/12/09 01:57:21;;;;;;;21.73;12.48;;;1.60;99.90;;;;;;4917710;28;20045;-85
2021/12/09 01:59:51;;;;;;;24.05;11.60;;;1.60;99.90;;;;;;4919515;28;20105;-85
2021/12/09 02:02:17;;;;;;;24.27;12.02;;;1.60;99.90;;;;;;4930384;28;20035;-85
2021/12/09 02:04:49;;;;;;;23.25;11.90;;;1.60;99.90;;;;;;4936479;28;20042;-86
2021/12/09 02:07:22;;;;;;;29.38;13.10;;;1.60;99.90;;;;;;4939039;28;20043;-84
2021/12/09 02:09:54;;;;;;;21.40;11.88;;;1.60;99.90;;;;;;4940021;29;20046;-86
2021/12/09 02:12:20;;;;;;;18.63;12.35;;;1.50;99.90;;;;;;4932926;29;20046;-84
2021/12/09 02:14:49;;;;;;;26.13;13.95;;;1.50;99.90;;;;;;4906455;29;20078;-85
2021/12/09 02:17:39;;;;;;;20.00;12.85;;;1.50;99.90;;;;;;4935234;29;20058;-85
2021/12/09 02:20:17;;;;;;;30.38;13.68;;;1.40;99.90;;;;;;4925549;29;20047;-87
2021/12/09 02:22:51;;;;;;;28.13;13.00;;;1.40;99.90;;;;;;4922939;28;20782;-86
2021/12/09 02:25:22;;;;;;;25.25;14.18;;;1.40;99.90;;;;;;4924999;29;20027;-85
2021/12/09 02:27:50;;;;;;;26.83;14.05;;;1.40;99.90;;;;;;4916353;28;20038;-85
2021/12/09 02:30:33;;;;;;;;;;;;;;;;;;;;;
2021/12/09 02:33:13;;;;;;;24.60;12.77;;;1.30;99.90;;;;;;4903238;28;20039;-85
2021/12/09 02:35:57;;;;;;;27.80;14.88;;;1.30;99.90;;;;;;4918013;29;20043;-86
2021/12/09 02:38:53;;;;;;;27.58;14.30;;;1.30;99.90;;;;;;4905558;28;20043;-85
2021/12/09 02:44:55;;;;;;;30.10;15.45;;;1.30;99.90;;;;;;4935632;28;20051;-85
2021/12/09 02:47:24;;;;;;;38.47;16.25;;;1.30;99.90;;;;;;4951284;28;20078;-84
2021/12/09 02:50:17;;;;;;;27.98;15.07;;;1.30;99.90;;;;;;4937604;29;20035;-85
2021/12/09 02:53:05;;;;;;;;;;;;;;;;;;;;;
2021/12/09 02:55:44;;;;;;;37.78;16.73;;;1.30;99.90;;;;;;4921389;29;20047;-84
2021/12/09 02:58:15;;;;;;;35.22;16.25;;;1.30;99.90;;;;;;4915616;29;20039;-85
2021/12/09 03:01:14;;;;;;;31.83;16.42;;;1.30;99.90;;;;;;4945770;28;20165;-86
2021/12/09 03:03:52;;;;;;;32.28;16.90;;;1.30;99.90;;;;;;4925983;28;20155;-86
2021/12/09 03:06:34;;;;;;;33.90;15.85;;;1.30;99.90;;;;;;4930351;29;20043;-85
2021/12/09 03:09:16;;;;;;;34.13;16.98;;;1.30;99.90;;;;;;4931698;29;20043;-85
2021/12/09 03:11:54;;;;;;;33.25;16.90;;;1.30;99.90;;;;;;4912506;28;20071;-86
2021/12/09 03:14:23;;;;;;;32.78;16.17;;;1.30;99.90;;;;;;4940560;28;21251;-86
2021/12/09 03:17:07;;;;;;;32.30;16.20;;;1.30;99.90;;;;;;4931369;29;20086;-85
2021/12/09 03:19:45;;;;;;;28.13;14.73;;;1.30;99.90;;;;;;4955903;28;20054;-86
2021/12/09 03:22:17;;;;;;;35.83;16.20;;;1.40;99.90;;;;;;4939551;29;20055;-86
2021/12/09 03:24:46;;;;;;;41.45;17.77;;;1.30;99.90;;;;;;4926749;29;20039;-85
2021/12/09 03:27:35;;;;;;;32.65;16.52;;;1.30;99.90;;;;;;4911757;29;20114;-86
2021/12/09 03:30:08;;;;;;;30.13;16.73;;;1.30;99.90;;;;;;4918476;29;20075;-84
2021/12/09 03:32:38;;;;;;;34.17;18.05;;;1.30;99.90;;;;;;4925263;29;20051;-85
2021/12/09 03:35:07;;;;;;;;;;;1.30;99.90;;;;;;4914889;28;20580;-84
2021/12/09 03:37:35;;;;;;;34.65;17.48;;;1.20;99.90;;;;;;4932932;29;19922;-85
2021/12/09 03:40:02;;;;;;;33.58;15.98;;;1.20;99.90;;;;;;4902806;29;20047;-85
2021/12/09 03:45:36;;;;;;;35.25;18.60;;;1.20;99.90;;;;;;4937053;28;20039;-85
2021/12/09 03:48:03;;;;;;;37.97;19.20;;;1.10;99.90;;;;;;4940185;29;20046;-86
2021/12/09 03:50:28;;;;;;;36.85;17.85;;;1.20;99.90;;;;;;4921912;28;20050;-85
2021/12/09 03:52:54;;;;;;;47.33;19.55;;;1.10;99.90;;;;;;4930501;29;20649;-85
2021/12/09 03:55:37;;;;;;;37.95;19.58;;;1.10;99.90;;;;;;4930925;29;20035;-84
2021/12/09 03:58:13;;;;;;;46.72;19.17;;;1.10;99.90;;;;;;4936937;29;20131;-85
2021/12/09 04:00:40;;;;;;;41.55;18.85;;;1.10;99.90;;;;;;4913837;29;20043;-85
2021/12/09 04:03:12;;;;;;;40.15;19.15;;;1.00;99.90;;;;;;4917997;29;20125;-85
2021/12/09 04:05:45;;;;;;;40.10;19.92;;;1.00;99.90;;;;;;4920885;29;20039;-85
2021/12/09 04:08:11;;;;;;;39.53;20.02;;;1.00;99.90;;;;;;4917496;28;20048;-84
2021/12/09 04:10:52;;;;;;;;;;;;;;;;;;;;;
2021/12/09 04:13:28;;;;;;;45.67;20.77;;;1.00;99.90;;;;;;4923562;29;20047;-85
2021/12/09 04:16:07;;;;;;;44.83;19.38;;;1.10;99.90;;;;;;4944381;28;20455;-86
2021/12/09 04:18:38;;;;;;;44.03;18.95;;;1.10;99.90;;;;;;4914675;28;20051;-84
2021/12/09 04:21:20;;;;;;;40.75;20.65;;;1.00;99.90;;;;;;4899304;29;20043;-83
2021/12/09 04:23:46;;;;;;;34.75;19.10;;;1.00;99.90;;;;;;4945889;28;20133;-85
2021/12/09 04:26:12;;;;;;;43.92;19.50;;;1.00;99.90;;;;;;4921305;28;20036;-85
2021/12/09 04:28:48;;;;;;;36.97;19.30;;;1.00;99.90;;;;;;4946313;29;20512;-86
2021/12/09 04:31:22;;;;;;;36.33;20.08;;;1.00;99.90;;;;;;4948119;28;20043;-85
2021/12/09 04:33:49;;;;;;;48.97;20.77;;;1.00;99.90;;;;;;4934222;29;20039;-86
2021/12/09 04:36:21;;;;;;;53.15;21.65;;;1.00;99.90;;;;;;4905269;29;20043;-84
2021/12/09 04:38:50;;;;;;;43.00;20.17;;;1.00;99.90;;;;;;4916079;28;20063;-84
2021/12/09 04:41:21;;;;;;;46.88;20.70;;;0.90;99.90;;;;;;4931619;29;20066;-86
2021/12/09 04:43:47;;;;;;;43.97;21.55;;;0.90;99.90;;;;;;4914363;29;20047;-85
2021/12/09 04:46:14;;;;;;;47.35;22.27;;;0.90;99.90;;;;;;4924385;28;20032;-84
2021/12/09 04:48:41;;;;;;;48.28;21.88;;;0.90;99.90;;;;;;4927436;29;20043;-84
2021/12/09 04:51:08;;;;;;;54.83;22.60;;;0.90;99.90;;;;;;4906817;28;20070;-85
2021/12/09 04:53:35;;;;;;;47.25;21.92;;;0.90;99.90;;;;;;4917849;29;20071;-84
2021/12/09 04:56:03;;;;;;;38.05;20.73;;;0.90;99.90;;;;;;4913174;28;20700;-85
2021/12/09 04:58:29;;;;;;;51.70;21.58;;;0.90;99.90;;;;;;4912809;28;20924;-84
2021/12/09 05:01:00;;;;;;;49.10;23.30;;;0.80;99.90;;;;;;4895118;28;20379;-86
2021/12/09 05:03:29;;;;;;;44.70;21.48;;;0.80;99.90;;;;;;4924274;29;20035;-86
2021/12/09 05:05:57;;;;;;;48.75;21.35;;;0.80;99.90;;;;;;4914975;29;20413;-85
2021/12/09 05:08:45;;;;;;;53.10;22.40;;;0.80;99.90;;;;;;4921675;29;20066;-85
2021/12/09 05:12:01;;;;;;;57.22;21.83;;;0.80;99.90;;;;;;4916022;28;20049;-85
2021/12/09 05:14:06;;;;;;;52.58;22.67;;;0.80;99.90;;;;;;4922033;29;20131;-84
2021/12/09 05:16:40;;;;;;;47.22;22.17;;;0.80;99.90;;;;;;4915530;28;20043;-84
2021/12/09 05:19:09;;;;;;;50.10;22.45;;;0.80;99.90;;;;;;4921052;29;20075;-84
2021/12/09 05:21:37;;;;;;;49.15;22.60;;;0.90;99.90;;;;;;4946306;28;20044;-84
2021/12/09 05:24:11;;;;;;;45.80;22.98;;;0.80;99.90;;;;;;4924106;29;20565;-85
2021/12/09 05:27:04;;;;;;;57.60;23.92;;;0.80;99.90;;;;;;4934340;28;20067;-85
2021/12/09 05:29:38;;;;;;;51.30;23.85;;;0.80;99.90;;;;;;4934166;29;20039;-86
2021/12/09 05:32:23;;;;;;;58.13;23.08;;;0.80;99.90;;;;;;4933192;29;20537;-85
2021/12/09 05:34:55;;;;;;;48.95;22.23;;;0.80;99.90;;;;;;4905440;29;20415;-85
2021/12/09 05:37:28;;;;;;;53.85;23.77;;;0.80;99.90;;;;;;4919776;29;20106;-85
2021/12/09 05:39:56;;;;;;;49.00;22.45;;;0.80;99.90;;;;;;4917749;29;20039;-85
2021/12/09 05:42:26;;;;;;;51.55;20.95;;;0.80;99.90;;;;;;4913890;29;20050;-85
2021/12/09 05:44:57;;;;;;;46.13;22.45;;;0.80;99.90;;;;;;4927676;29;20079;-85
2021/12/09 05:47:32;;;;;;;50.05;22.65;;;0.70;99.90;;;;;;4931474;29;20036;-87
2021/12/09 05:50:08;;;;;;;55.03;25.05;;;0.80;99.90;;;;;;4931713;29;20056;-85
2021/12/09 05:52:45;;;;;;;48.85;22.52;;;0.80;99.90;;;;;;4917325;29;20129;-86
2021/12/09 05:55:11;;;;;;;46.58;22.60;;;0.80;99.90;;;;;;4931573;29;20101;-85
2021/12/09 05:57:37;;;;;;;54.45;23.52;;;0.70;99.90;;;;;;4937900;29;20557;-85
2021/12/09 06:00:12;;;;;;;55.10;24.23;;;0.70;99.90;;;;;;4953927;28;20040;-86
2021/12/09 06:02:38;;;;;;;50.53;23.38;;;0.70;99.90;;;;;;4905692;29;20043;-85
2021/12/09 06:05:14;;;;;;;56.08;23.48;;;0.70;99.90;;;;;;4919412;28;20312;-85
2021/12/09 06:07:40;;;;;;;59.70;25.23;;;0.60;99.90;;;;;;4966214;28;20075;-85
2021/12/09 06:10:07;;;;;;;52.65;24.50;;;0.60;99.90;;;;;;4920898;29;20172;-84
2021/12/09 06:12:40;;;;;;;57.97;24.67;;;0.60;99.90;;;;;;4902506;28;20039;-87
2021/12/09 06:15:12;;;;;;;59.88;25.27;;;0.60;99.90;;;;;;4949503;28;20102;-85
2021/12/09 06:17:39;;;;;;;59.85;25.85;;;0.60;99.90;;;;;;4916607;29;20035;-85
2021/12/09 06:20:16;;;;;;;47.22;23.67;;;0.60;99.90;;;;;;4920153;29;20095;-85
2021/12/09 06:22:57;;;;;;;51.15;23.40;;;0.60;99.90;;;;;;4899867;29;20106;-85
2021/12/09 06:25:33;;;;;;;57.28;23.88;;;0.60;99.90;;;;;;4901680;28;20183;-84
2021/12/09 06:27:59;;;;;;;57.10;27.15;;;0.60;99.90;;;;;;4919358;29;20090;-86
2021/12/09 06:30:26;;;;;;;63.88;26.23;;;0.60;99.90;;;;;;4931864;28;20053;-86
2021/12/09 06:32:52;;;;;;;63.22;27.45;;;0.60;99.90;;;;;;4934400;29;20040;-85
2021/12/09 06:35:19;;;;;;;65.22;26.77;;;0.60;99.90;;;;;;4924568;29;20035;-85
2021/12/09 06:37:51;;;;;;;59.28;26.55;;;0.60;99.90;;;;;;4918816;29;20055;-85
2021/12/09 06:40:31;;;;;;;59.08;26.33;;;0.60;99.90;;;;;;4917372;29;20356;-85
2021/12/09 06:43:42;;;;;;;;;;;;;;;;;;;;;
2021/12/09 06:46:55;;;;;;;57.22;24.95;;;0.60;99.90;;;;;;4946995;28;20058;-86
2021/12/09 06:49:31;;;;;;;52.28;24.90;;;0.60;99.90;;;;;;4932776;29;20101;-86
2021/12/09 06:51:59;;;;;;;;;;;0.50;99.90;;;;;;4914626;28;20039;-86
2021/12/09 06:54:26;;;;;;;52.72;24.95;;;0.50;99.90;;;;;;4897773;28;20220;-85
2021/12/09 07:00:14;;;;;;;58.33;25.90;;;0.50;99.90;;;;;;4938804;28;20082;-86
2021/12/09 07:02:50;;;;;;;59.67;27.23;;;0.50;99.90;;;;;;4932716;29;20055;-86
2021/12/09 07:05:27;;;;;;;69.00;27.40;;;0.50;99.90;;;;;;4945140;28;20043;-86
2021/12/09 07:07:53;;;;;;;67.35;27.52;;;0.50;99.90;;;;;;4944585;28;20034;-84
2021/12/09 07:10:47;;;;;;;61.90;26.85;;;0.50;99.90;;;;;;4938036;28;20115;-85
2021/12/09 07:13:13;;;;;;;63.92;27.55;;;0.60;99.90;;;;;;4944154;28;22810;-84
2021/12/09 07:19:00;;;;;;;57.72;26.23;;;0.50;99.90;;;;;;4925288;28;20426;-84
2021/12/09 07:21:44;;;;;;;67.25;27.10;;;0.60;99.90;;;;;;4898314;28;20102;-85
2021/12/09 07:24:31;;;;;;;52.63;25.58;;;0.60;99.90;;;;;;4905690;29;20458;-85
2021/12/09 07:27:03;;;;;;;52.30;24.67;;;0.60;99.90;;;;;;4904983;28;20043;-85
2021/12/09 07:29:32;;;;;;;63.28;27.55;;;0.70;99.90;;;;;;4926769;28;20126;-85
2021/12/09 07:32:24;;;;;;;60.40;24.52;;;0.60;99.90;;;;;;4891286;28;20056;-84
2021/12/09 07:34:59;;;;;;;63.28;25.95;;;0.60;99.90;;;;;;4924050;28;20047;-85
2021/12/09 07:37:28;;;;;;;65.13;26.63;;;0.70;99.90;;;;;;4908704;28;20051;-84
2021/12/09 07:40:04;;;;;;;61.30;24.38;;;0.60;99.90;;;;;;4911141;28;20082;-85
2021/12/09 07:42:29;;;;;;;54.78;25.48;;;0.60;99.90;;;;;;4925310;29;20585;-85
2021/12/09 07:45:31;;;;;;;54.00;24.83;;;0.60;99.90;;;;;;4925041;28;20064;-85
2021/12/09 07:47:58;;;;;;;51.70;23.42;;;0.60;99.90;;;;;;4923947;29;20787;-84
2021/12/09 07:50:26;;;;;;;64.57;23.95;;;0.60;99.90;;;;;;4930656;29;20044;-83
2021/12/09 07:52:55;;;;;;;59.60;26.30;;;0.60;99.90;;;;;;4938627;28;20046;-84
2021/12/09 07:55:23;;;;;;;54.78;24.83;;;0.50;99.90;;;;;;4921388;28;20402;-84
2021/12/09 07:57:49;;;;;;;62.38;26.42;;;0.60;99.90;;;;;;4907956;28;20047;-85
2021/12/09 08:00:30;;;;;;;61.67;24.50;;;0.60;99.90;;;;;;4908457;29;21481;-84
2021/12/09 08:03:03;;;;;;;58.92;25.80;;;0.60;99.90;;;;;;4936136;28;20047;-84
2021/12/09 08:05:33;;;;;;;55.83;23.70;;;0.60;99.90;;;;;;4927052;29;20051;-85
2021/12/09 08:08:11;;;;;;;61.83;24.27;;;0.60;99.90;;;;;;4911308;28;20067;-84
2021/12/09 08:10:43;;;;;;;54.65;23.13;;;0.60;99.90;;;;;;4913306;28;20106;-85
2021/12/09 08:13:09;;;;;;;57.60;24.38;;;0.60;99.90;;;;;;4909946;28;20049;-84
2021/12/09 08:18:53;;;;;;;56.33;23.67;;;0.60;99.90;;;;;;4913325;28;20043;-84
2021/12/09 08:21:22;;;;;;;59.55;23.17;;;0.60;99.90;;;;;;4897062;28;20291;-84
2021/12/09 08:23:49;;;;;;;54.10;23.40;;;0.60;99.90;;;;;;4895560;28;20055;-84
2021/12/09 08:26:15;;;;;;;60.08;25.92;;;0.60;99.90;;;;;;4920074;28;20052;-84
2021/12/09 08:28:41;;;;;;;70.78;28.00;;;0.70;99.90;;;;;;4908953;28;20046;-85
2021/12/09 08:31:13;;;;;;;58.63;25.40;;;0.70;99.90;;;;;;4895109;29;20103;-85
2021/12/09 08:33:45;;;;;;;54.30;23.38;;;0.70;99.90;;;;;;4927763;28;20050;-84
2021/12/09 08:36:11;;;;;;;50.25;24.65;;;0.70;99.90;;;;;;4882441;28;20047;-85
2021/12/09 08:38:39;;;;;;;54.88;22.92;;;0.70;99.90;;;;;;4908730;28;20102;-85
2021/12/09 08:41:08;;;;;;;51.92;23.88;;;0.80;99.90;;;;;;4907180;29;20043;-85
2021/12/09 08:43:45;;;;;;;58.38;24.40;;;0.80;99.90;;;;;;4911814;28;20035;-85
2021/12/09 08:46:14;;;;;;;47.38;21.85;;;0.80;99.90;;;;;;4924372;28;20035;-83
2021/12/09 08:48:40;;;;;;;43.60;19.73;;;0.90;99.90;;;;;;4926180;29;20035;-85
2021/12/09 08:51:06;;;;;;;52.28;22.20;;;0.90;99.90;;;;;;4909564;28;20517;-84
2021/12/09 08:53:32;;;;;;;38.45;18.60;;;0.90;99.90;;;;;;4887980;29;20149;-84
2021/12/09 08:55:58;;;;;;;43.28;19.75;;;1.00;99.90;;;;;;4919697;28;20043;-84
2021/12/09 08:58:24;;;;;;;40.08;19.20;;;1.00;99.90;;;;;;4907621;28;20040;-85
2021/12/09 09:00:53;;;;;;;44.22;21.13;;;1.00;99.90;;;;;;4910104;28;20759;-84
2021/12/09 09:03:19;;;;;;;42.40;20.33;;;1.00;99.90;;;;;;4896143;28;20118;-84
2021/12/09 09:05:45;;;;;;;38.92;19.80;;;1.10;99.90;;;;;;4908933;28;20121;-84
2021/12/09 09:08:11;;;;;;;43.63;20.23;;;1.10;99.90;;;;;;4910748;28;20097;-84
2021/12/09 09:10:39;;;;;;;36.00;18.08;;;1.20;99.90;;;;;;4904916;29;20039;-83
2021/12/09 09:13:05;;;;;;;45.80;20.83;;;1.20;99.90;;;;;;4907742;28;20035;-83
2021/12/09 09:15:32;;;;;;;39.78;17.90;;;1.20;99.90;;;;;;4887044;28;20392;-84
2021/12/09 09:18:00;;;;;;;35.35;18.80;;;1.30;99.90;;;;;;4899005;28;20040;-85
2021/12/09 09:20:28;;;;;;;36.30;19.83;;;1.30;99.90;;;;;;4905720;28;20051;-84
2021/12/09 09:22:54;;;;;;;36.08;16.70;;;1.40;99.90;;;;;;4892983;29;20043;-84
2021/12/09 09:25:29;;;;;;;38.15;15.75;;;1.50;99.90;;;;;;4922086;29;20376;-84
2021/12/09 09:28:00;;;;;;;32.28;15.00;;;1.50;99.90;;;;;;4918527;29;20035;-85
2021/12/09 09:30:34;;;;;;;31.63;15.30;;;1.50;99.90;;;;;;4921006;29;20410;-84
2021/12/09 09:33:02;;;;;;;30.33;15.77;;;1.60;99.90;;;;;;4911381;29;20044;-84
2021/12/09 09:35:29;;;;;;;42.22;18.60;;;1.60;99.90;;;;;;4919750;28;20035;-86
2021/12/09 09:38:04;;;;;;;26.83;14.10;;;1.70;99.90;;;;;;4917602;28;20039;-85
2021/12/09 09:40:45;;;;;;;28.67;15.73;;;1.70;99.90;;;;;;4921109;28;20082;-84
2021/12/09 09:43:27;;;;;;;26.80;13.18;;;1.70;99.90;;;;;;4937032;28;20487;-84
2021/12/09 09:45:55;;;;;;;32.85;15.77;;;1.90;99.90;;;;;;4907754;28;20133;-85
2021/12/09 09:48:21;;;;;;;29.10;14.35;;;1.90;99.90;;;;;;4901552;28;20066;-84
2021/12/09 09:50:49;;;;;;;26.85;12.40;;;2.00;99.90;;;;;;4905973;29;20135;-87
2021/12/09 09:53:17;;;;;;;32.03;13.60;;;2.00;99.90;;;;;;4910733;28;20623;-84
2021/12/09 09:55:46;;;;;;;25.30;12.73;;;2.00;99.90;;;;;;4910795;28;20078;-85
2021/12/09 09:58:12;;;;;;;32.60;14.43;;;2.10;99.90;;;;;;4914386;28;20051;-84
2021/12/09 10:00:38;;;;;;;36.90;15.88;;;2.10;99.90;;;;;;4923221;28;20078;-84
2021/12/09 10:03:17;;;;;;;27.20;13.48;;;2.10;99.90;;;;;;4941016;28;20118;-84
2021/12/09 10:05:57;;;;;;;26.00;13.23;;;2.20;99.90;;;;;;4924587;28;20043;-85
2021/12/09 10:08:23;;;;;;;27.48;13.27;;;2.20;99.90;;;;;;4910972;29;20562;-85
2021/12/09 10:10:55;;;;;;;27.88;12.45;;;2.30;99.90;;;;;;4912558;28;20133;-86
2021/12/09 10:13:31;;;;;;;27.38;11.90;;;2.40;99.90;;;;;;4928049;29;20102;-84
2021/12/09 10:15:57;;;;;;;24.58;11.95;;;2.40;99.90;;;;;;4906989;28;20230;-84
2021/12/09 10:18:43;;;;;;;22.70;10.52;;;2.50;99.90;;;;;;4893803;28;20103;-83
2021/12/09 10:21:17;;;;;;;23.67;10.45;;;2.60;99.90;;;;;;4902801;28;20855;-85
2021/12/09 10:24:08;;;;;;;26.98;11.30;;;2.70;99.90;;;;;;4923560;28;20249;-85
2021/12/09 10:26:40;;;;;;;28.92;10.93;;;2.70;99.90;;;;;;4923119;29;20042;-86
2021/12/09 10:29:16;;;;;;;23.83;10.70;;;2.80;99.90;;;;;;4908650;29;20071;-83
2021/12/09 10:31:57;;;;;;;22.63;10.15;;;2.90;99.90;;;;;;4921468;28;20581;-84
2021/12/09 10:34:42;;;;;;;14.73;8.70;;;3.00;99.90;;;;;;4914150;28;20035;-83
2021/12/09 10:37:22;;;;;;;21.92;9.02;;;3.00;99.90;;;;;;4912281;29;20040;-83
2021/12/09 10:40:36;;;;;;;18.20;9.63;;;3.10;99.90;;;;;;4906743;28;20090;-85
2021/12/09 10:43:04;;;;;;;22.38;9.65;;;3.10;99.90;;;;;;4896402;29;20112;-85
2021/12/09 10:46:12;;;;;;;19.38;8.88;;;3.20;99.90;;;;;;4869070;29;20166;-83
2021/12/09 10:49:16;;;;;;;27.52;11.15;;;3.20;99.90;;;;;;4893867;28;20055;-84
2021/12/09 10:51:56;;;;;;;23.90;9.68;;;3.30;99.90;;;;;;4900557;28;20062;-83
2021/12/09 10:54:57;;;;;;;25.50;11.07;;;3.40;99.90;;;;;;4917771;29;20501;-84
2021/12/09 10:57:55;;;;;;;21.40;9.90;;;3.40;99.90;;;;;;4921371;28;20047;-82
2021/12/09 11:00:55;;;;;;;26.02;9.18;;;3.40;99.90;;;;;;4903723;28;20040;-85
2021/12/09 11:03:42;;;;;;;26.30;10.02;;;3.40;99.90;;;;;;4921473;28;20495;-84
2021/12/09 11:06:15;;;;;;;22.55;9.80;;;3.40;99.90;;;;;;4923087;28;20665;-83
2021/12/09 11:08:47;;;;;;;24.75;11.50;;;3.40;99.90;;;;;;4922866;29;20074;-84
2021/12/09 11:11:35;;;;;;;24.90;10.38;;;3.40;99.90;;;;;;4906431;28;20840;-83
2021/12/09 11:14:28;;;;;;;;;;;;;;;;;;;;;
2021/12/09 11:17:41;;;;;;;26.73;11.35;;;3.30;99.90;;;;;;4927050;29;20051;-85
2021/12/09 11:20:59;;;;;;;31.75;12.02;;;3.30;99.90;;;;;;4893355;28;20134;-83
2021/12/09 11:24:00;;;;;;;31.02;11.68;;;3.30;99.90;;;;;;4903292;28;20075;-83
2021/12/09 11:27:03;;;;;;;30.65;13.77;;;3.30;99.90;;;;;;4894944;29;20058;-84
2021/12/09 11:29:49;;;;;;;27.10;14.50;;;3.20;99.90;;;;;;4925226;28;20058;-83
2021/12/09 11:32:51;;;;;;;26.58;12.13;;;3.20;99.90;;;;;;4907870;28;20068;-83
2021/12/09 11:35:25;;;;;;;37.08;14.43;;;3.30;99.90;;;;;;4892916;28;20043;-83
2021/12/09 11:40:57;;;;;;;30.33;14.48;;;3.30;99.90;;;;;;4921266;28;20554;-84
2021/12/09 11:43:29;;;;;;;26.52;14.80;;;3.30;99.90;;;;;;4906561;28;20047;-83
2021/12/09 11:46:00;;;;;;;34.28;15.93;;;3.30;99.90;;;;;;4888579;28;20609;-83
2021/12/09 11:48:27;;;;;;;25.88;13.15;;;3.30;99.90;;;;;;4935053;28;20074;-84
2021/12/09 11:51:03;;;;;;;25.17;12.20;;;3.30;99.90;;;;;;4890517;28;20039;-83
2021/12/09 11:53:34;;;;;;;28.92;13.13;;;3.40;99.90;;;;;;4932675;28;20035;-85
2021/12/09 11:57:16;;;;;;;23.90;13.55;;;3.40;99.90;;;;;;4924025;28;20035;-83
2021/12/09 12:12:47;;;;;;;25.35;12.95;;;3.30;99.90;;;;;;4920246;28;20122;-84
2021/12/09 12:24:33;;;;;;;23.08;13.50;;;3.30;99.90;;;;;;4947007;28;20051;-81
2021/12/09 12:30:17;;;;;;;22.45;13.07;;;3.40;99.90;;;;;;4938290;28;20071;-81
2021/12/09 12:36:53;;;;;;;24.85;13.63;;;3.40;99.90;;;;;;4915538;29;20087;-84
2021/12/09 12:39:47;;;;;;;27.00;12.80;;;3.40;99.90;;;;;;4912773;29;20102;-84
2021/12/09 12:42:46;;;;;;;29.33;13.32;;;3.50;99.90;;;;;;4914345;28;20051;-84
2021/12/09 12:46:12;;;;;;;28.70;14.98;;;3.50;99.90;;;;;;4920597;28;20057;-85
2021/12/09 12:49:01;;;;;;;27.60;13.18;;;3.50;99.90;;;;;;4879414;29;20052;-83
2021/12/09 12:51:53;;;;;;;26.25;14.35;;;3.50;99.90;;;;;;4915912;29;20394;-81
2021/12/09 12:54:39;;;;;;;30.17;14.60;;;3.50;99.90;;;;;;4930114;28;20531;-82
2021/12/09 12:57:33;;;;;;;27.20;14.05;;;3.50;99.90;;;;;;4905280;28;20756;-83
2021/12/09 13:00:09;;;;;;;32.95;14.43;;;3.40;99.90;;;;;;4918322;28;20410;-83
2021/12/09 13:05:24;;;;;;;24.85;14.07;;;3.50;99.90;;;;;;4935746;28;21796;-83
2021/12/09 13:10:33;;;;;;;27.90;14.30;;;3.50;99.90;;;;;;4935058;28;20502;-84
2021/12/09 13:13:58;;;;;;;31.17;14.25;;;3.50;99.90;;;;;;4903997;28;20491;-81
2021/12/09 13:19:41;;;;;;;32.22;15.07;;;3.50;99.90;;;;;;4919274;28;20553;-84
2021/12/09 13:22:12;;;;;;;35.78;15.95;;;3.50;99.90;;;;;;4906079;28;20074;-83
2021/12/09 13:25:14;;;;;;;34.97;16.05;;;3.50;99.90;;;;;;4940035;28;20043;-84
2021/12/09 13:28:09;;;;;;;34.55;16.40;;;3.50;99.90;;;;;;4928336;28;20075;-84
2021/12/09 13:33:59;;;;;;;32.55;15.25;;;3.50;99.90;;;;;;4913102;28;20047;-83
2021/12/09 13:40:24;;;;;;;41.22;17.05;;;3.50;99.90;;;;;;4914076;28;20047;-83
2021/12/09 13:46:07;;;;;;;35.22;15.55;;;3.50;99.90;;;;;;4924618;28;20050;-84
2021/12/09 13:48:45;;;;;;;38.72;18.15;;;3.60;99.90;;;;;;4932472;28;20491;-82
2021/12/09 13:54:25;;;;;;;36.45;16.55;;;3.50;99.90;;;;;;4927953;29;20051;-84
2021/12/09 13:57:03;;;;;;;43.33;18.75;;;3.50;99.90;;;;;;4911833;29;20051;-83
2021/12/09 13:59:39;;;;;;;39.58;17.80;;;3.60;99.90;;;;;;4912742;28;20074;-85
2021/12/09 14:02:20;;;;;;;35.60;16.10;;;3.60;99.90;;;;;;4928116;29;20039;-82
2021/12/09 14:04:46;;;;;;;34.17;16.30;;;3.60;99.90;;;;;;4890144;28;20078;-82
2021/12/09 14:07:24;;;;;;;41.00;17.52;;;3.60;99.90;;;;;;4921128;28;20043;-81
2021/12/09 14:12:45;;;;;;;31.10;17.15;;;3.60;99.90;;;;;;5036737;23;20054;-83
2021/12/09 14:15:55;;;;;;;42.05;16.85;;;3.70;99.90;;;;;;4941197;28;20473;-84
2021/12/09 14:21:24;;;;;;;39.25;15.88;;;3.70;99.90;;;;;;4943805;28;20044;-83
2021/12/09 14:24:52;;;;;;;41.20;18.77;;;3.80;99.90;;;;;;4942790;28;20580;-84
2021/12/09 14:27:27;;;;;;;32.03;16.85;;;3.80;99.90;;;;;;4901645;29;20047;-84
2021/12/09 14:29:56;;;;;;;38.85;16.90;;;3.80;99.90;;;;;;4926046;29;20126;-83
2021/12/09 14:32:30;;;;;;;30.88;15.70;;;3.80;99.90;;;;;;4902752;29;20040;-81
2021/12/09 14:35:29;;;;;;;32.63;16.58;;;3.80;99.90;;;;;;4916946;29;20141;-83
2021/12/09 14:38:09;;;;;;;28.27;13.93;;;3.80;99.90;;;;;;4940722;29;20039;-84
2021/12/09 14:41:36;;;;;;;39.50;16.90;;;3.80;99.90;;;;;;4893140;29;20451;-84
2021/12/09 14:44:35;;;;;;;34.40;16.25;;;3.80;99.90;;;;;;4938988;29;20031;-82
2021/12/09 14:47:16;;;;;;;28.23;15.43;;;3.80;99.90;;;;;;4923676;29;20055;-83
2021/12/09 14:49:46;;;;;;;32.42;15.52;;;3.80;99.90;;;;;;4922564;29;20125;-84